sensor_id;sensor_type;location;lat;lon;timestamp;temperature;humidity
22850;DHT22;11591;44.792;10.358;2023-03-11T00:00:14;15.80;96.30
22850;DHT22;11591;44.792;10.358;2023-03-11T00:02:45;15.90;96.30
22850;DHT22;11591;44.792;10.358;2023-03-11T00:05:15;15.80;96.30
22850;DHT22;11591;44.792;10.358;2023-03-11T00:07:41;15.80;96.30
22850;DHT22;11591;44.792;10.358;2023-03-11T00:10:12;15.80;96.40
22850;DHT22;11591;44.792;10.358;2023-03-11T00:12:38;15.80;96.60
22850;DHT22;11591;44.792;10.358;2023-03-11T00:15:04;15.70;96.70
22850;DHT22;11591;44.792;10.358;2023-03-11T00:17:30;15.70;96.90
22850;DHT22;11591;44.792;10.358;2023-03-11T00:19:56;15.60;97.00
22850;DHT22;11591;44.792;10.358;2023-03-11T00:22:22;15.60;97.00
22850;DHT22;11591;44.792;10.358;2023-03-11T00:24:48;15.60;97.00
22850;DHT22;11591;44.792;10.358;2023-03-11T00:27:13;15.50;97.00
22850;DHT22;11591;44.792;10.358;2023-03-11T00:29:39;15.50;97.10
22850;DHT22;11591;44.792;10.358;2023-03-11T00:32:06;15.50;97.20
22850;DHT22;11591;44.792;10.358;2023-03-11T00:34:32;15.40;97.30
22850;DHT22;11591;44.792;10.358;2023-03-11T00:36:59;15.40;97.40
22850;DHT22;11591;44.792;10.358;2023-03-11T00:39:24;15.40;97.50
22850;DHT22;11591;44.792;10.358;2023-03-11T00:41:50;15.40;97.60
22850;DHT22;11591;44.792;10.358;2023-03-11T00:44:16;15.30;97.60
22850;DHT22;11591;44.792;10.358;2023-03-11T00:46:42;15.30;97.60
22850;DHT22;11591;44.792;10.358;2023-03-11T00:49:08;15.30;97.70
22850;DHT22;11591;44.792;10.358;2023-03-11T00:51:33;15.30;97.80
22850;DHT22;11591;44.792;10.358;2023-03-11T00:53:59;15.20;97.70
22850;DHT22;11591;44.792;10.358;2023-03-11T00:56:25;15.10;97.80
22850;DHT22;11591;44.792;10.358;2023-03-11T00:58:52;15.10;97.80
22850;DHT22;11591;44.792;10.358;2023-03-11T01:01:19;15.10;97.80
22850;DHT22;11591;44.792;10.358;2023-03-11T01:03:45;15.00;97.70
22850;DHT22;11591;44.792;10.358;2023-03-11T01:06:11;15.00;97.80
22850;DHT22;11591;44.792;10.358;2023-03-11T01:08:37;14.90;97.90
22850;DHT22;11591;44.792;10.358;2023-03-11T01:11:03;14.90;97.90
22850;DHT22;11591;44.792;10.358;2023-03-11T01:13:29;14.90;98.10
22850;DHT22;11591;44.792;10.358;2023-03-11T01:15:56;14.80;98.10
22850;DHT22;11591;44.792;10.358;2023-03-11T01:18:22;14.80;98.20
22850;DHT22;11591;44.792;10.358;2023-03-11T01:20:48;14.70;98.30
22850;DHT22;11591;44.792;10.358;2023-03-11T01:23:15;14.70;98.40
22850;DHT22;11591;44.792;10.358;2023-03-11T01:25:43;14.70;98.50
22850;DHT22;11591;44.792;10.358;2023-03-11T01:28:09;14.60;98.60
22850;DHT22;11591;44.792;10.358;2023-03-11T01:30:37;14.60;98.60
22850;DHT22;11591;44.792;10.358;2023-03-11T01:33:04;14.60;98.70
22850;DHT22;11591;44.792;10.358;2023-03-11T01:35:31;14.50;98.80
22850;DHT22;11591;44.792;10.358;2023-03-11T01:37:57;14.50;98.90
22850;DHT22;11591;44.792;10.358;2023-03-11T01:40:33;14.50;99.00
22850;DHT22;11591;44.792;10.358;2023-03-11T01:43:06;14.40;99.10
22850;DHT22;11591;44.792;10.358;2023-03-11T01:48:18;14.30;99.30
22850;DHT22;11591;44.792;10.358;2023-03-11T01:50:48;14.30;99.40
22850;DHT22;11591;44.792;10.358;2023-03-11T01:53:15;14.30;99.50
22850;DHT22;11591;44.792;10.358;2023-03-11T01:55:45;14.30;99.60
22850;DHT22;11591;44.792;10.358;2023-03-11T01:58:17;14.30;99.70
22850;DHT22;11591;44.792;10.358;2023-03-11T02:00:43;14.30;99.70
22850;DHT22;11591;44.792;10.358;2023-03-11T02:03:25;14.30;99.80
22850;DHT22;11591;44.792;10.358;2023-03-11T02:05:54;14.30;99.90
22850;DHT22;11591;44.792;10.358;2023-03-11T02:08:21;14.20;99.90
22850;DHT22;11591;44.792;10.358;2023-03-11T02:10:48;14.20;99.90
22850;DHT22;11591;44.792;10.358;2023-03-11T02:13:15;14.20;99.90
22850;DHT22;11591;44.792;10.358;2023-03-11T02:15:41;14.10;99.90
22850;DHT22;11591;44.792;10.358;2023-03-11T02:18:07;14.00;99.90
22850;DHT22;11591;44.792;10.358;2023-03-11T02:23:22;14.00;99.90
22850;DHT22;11591;44.792;10.358;2023-03-11T02:26:11;14.00;99.90
22850;DHT22;11591;44.792;10.358;2023-03-11T02:28:38;13.90;99.90
22850;DHT22;11591;44.792;10.358;2023-03-11T02:31:05;13.90;99.90
22850;DHT22;11591;44.792;10.358;2023-03-11T02:33:33;13.90;99.90
22850;DHT22;11591;44.792;10.358;2023-03-11T02:36:01;13.80;99.90
22850;DHT22;11591;44.792;10.358;2023-03-11T02:38:27;13.90;99.90
22850;DHT22;11591;44.792;10.358;2023-03-11T02:40:56;13.90;99.90
22850;DHT22;11591;44.792;10.358;2023-03-11T02:43:37;13.90;99.90
22850;DHT22;11591;44.792;10.358;2023-03-11T02:46:06;13.90;99.90
22850;DHT22;11591;44.792;10.358;2023-03-11T02:48:35;13.80;99.90
22850;DHT22;11591;44.792;10.358;2023-03-11T02:51:02;13.80;99.90
22850;DHT22;11591;44.792;10.358;2023-03-11T02:53:30;13.80;99.90
22850;DHT22;11591;44.792;10.358;2023-03-11T02:55:58;13.80;99.90
22850;DHT22;11591;44.792;10.358;2023-03-11T02:58:24;13.80;99.90
22850;DHT22;11591;44.792;10.358;2023-03-11T03:00:50;13.80;99.90
22850;DHT22;11591;44.792;10.358;2023-03-11T03:03:17;13.70;99.90
22850;DHT22;11591;44.792;10.358;2023-03-11T03:05:44;13.70;99.90
22850;DHT22;11591;44.792;10.358;2023-03-11T03:08:10;13.70;99.90
22850;DHT22;11591;44.792;10.358;2023-03-11T03:10:37;13.70;99.90
22850;DHT22;11591;44.792;10.358;2023-03-11T03:13:03;13.60;99.90
22850;DHT22;11591;44.792;10.358;2023-03-11T03:15:30;13.60;99.90
22850;DHT22;11591;44.792;10.358;2023-03-11T03:17:56;13.60;99.90
22850;DHT22;11591;44.792;10.358;2023-03-11T03:20:21;13.50;99.90
22850;DHT22;11591;44.792;10.358;2023-03-11T03:22:50;13.50;99.90
22850;DHT22;11591;44.792;10.358;2023-03-11T03:25:19;13.60;99.90
22850;DHT22;11591;44.792;10.358;2023-03-11T03:27:46;13.50;99.90
22850;DHT22;11591;44.792;10.358;2023-03-11T03:30:13;13.50;99.90
22850;DHT22;11591;44.792;10.358;2023-03-11T03:32:39;13.50;99.90
22850;DHT22;11591;44.792;10.358;2023-03-11T03:35:09;13.50;99.90
22850;DHT22;11591;44.792;10.358;2023-03-11T03:37:51;13.40;99.90
22850;DHT22;11591;44.792;10.358;2023-03-11T03:40:18;13.50;99.90
22850;DHT22;11591;44.792;10.358;2023-03-11T03:42:44;13.50;99.90
22850;DHT22;11591;44.792;10.358;2023-03-11T03:45:11;13.50;99.90
22850;DHT22;11591;44.792;10.358;2023-03-11T03:47:37;13.40;99.90
22850;DHT22;11591;44.792;10.358;2023-03-11T03:50:04;13.50;99.90
22850;DHT22;11591;44.792;10.358;2023-03-11T03:52:31;13.50;99.90
22850;DHT22;11591;44.792;10.358;2023-03-11T03:54:57;13.40;99.90
22850;DHT22;11591;44.792;10.358;2023-03-11T03:57:22;13.40;99.90
22850;DHT22;11591;44.792;10.358;2023-03-11T03:59:48;13.50;99.90
22850;DHT22;11591;44.792;10.358;2023-03-11T04:02:14;13.50;99.90
22850;DHT22;11591;44.792;10.358;2023-03-11T04:04:40;13.50;99.90
22850;DHT22;11591;44.792;10.358;2023-03-11T04:07:08;13.50;99.90
22850;DHT22;11591;44.792;10.358;2023-03-11T04:09:34;13.50;99.90
22850;DHT22;11591;44.792;10.358;2023-03-11T04:12:00;13.60;99.90
22850;DHT22;11591;44.792;10.358;2023-03-11T04:14:26;13.60;99.90
22850;DHT22;11591;44.792;10.358;2023-03-11T04:16:56;13.60;99.90
22850;DHT22;11591;44.792;10.358;2023-03-11T04:19:23;13.70;99.90
22850;DHT22;11591;44.792;10.358;2023-03-11T04:21:49;13.70;99.90
22850;DHT22;11591;44.792;10.358;2023-03-11T04:24:17;13.70;99.90
22850;DHT22;11591;44.792;10.358;2023-03-11T04:26:43;13.70;99.90
22850;DHT22;11591;44.792;10.358;2023-03-11T04:29:13;13.70;99.90
22850;DHT22;11591;44.792;10.358;2023-03-11T04:31:43;13.70;99.90
22850;DHT22;11591;44.792;10.358;2023-03-11T04:34:10;13.70;99.90
22850;DHT22;11591;44.792;10.358;2023-03-11T04:36:37;13.80;99.90
22850;DHT22;11591;44.792;10.358;2023-03-11T04:39:04;13.80;99.90
22850;DHT22;11591;44.792;10.358;2023-03-11T04:41:33;13.80;99.90
22850;DHT22;11591;44.792;10.358;2023-03-11T04:43:59;13.80;99.90
22850;DHT22;11591;44.792;10.358;2023-03-11T04:46:25;13.70;99.90
22850;DHT22;11591;44.792;10.358;2023-03-11T04:48:51;13.80;99.90
22850;DHT22;11591;44.792;10.358;2023-03-11T04:51:17;13.80;99.90
22850;DHT22;11591;44.792;10.358;2023-03-11T04:53:43;13.80;99.90
22850;DHT22;11591;44.792;10.358;2023-03-11T04:56:09;13.80;99.90
22850;DHT22;11591;44.792;10.358;2023-03-11T04:58:37;13.80;99.90
22850;DHT22;11591;44.792;10.358;2023-03-11T05:01:03;13.80;99.90
22850;DHT22;11591;44.792;10.358;2023-03-11T05:03:29;13.80;99.90
22850;DHT22;11591;44.792;10.358;2023-03-11T05:05:54;13.80;99.90
22850;DHT22;11591;44.792;10.358;2023-03-11T05:08:25;13.90;99.90
22850;DHT22;11591;44.792;10.358;2023-03-11T05:10:51;13.90;99.90
22850;DHT22;11591;44.792;10.358;2023-03-11T05:13:19;13.90;99.90
22850;DHT22;11591;44.792;10.358;2023-03-11T05:15:47;13.90;99.90
22850;DHT22;11591;44.792;10.358;2023-03-11T05:18:13;13.90;99.90
22850;DHT22;11591;44.792;10.358;2023-03-11T05:20:40;14.00;99.90
22850;DHT22;11591;44.792;10.358;2023-03-11T05:23:07;14.00;99.90
22850;DHT22;11591;44.792;10.358;2023-03-11T05:25:35;14.00;99.90
22850;DHT22;11591;44.792;10.358;2023-03-11T05:28:02;14.00;99.90
22850;DHT22;11591;44.792;10.358;2023-03-11T05:30:28;14.00;99.90
22850;DHT22;11591;44.792;10.358;2023-03-11T05:32:56;14.10;99.90
22850;DHT22;11591;44.792;10.358;2023-03-11T05:35:23;14.10;99.90
22850;DHT22;11591;44.792;10.358;2023-03-11T05:37:49;14.10;99.90
22850;DHT22;11591;44.792;10.358;2023-03-11T05:40:16;14.10;99.90
22850;DHT22;11591;44.792;10.358;2023-03-11T05:45:37;14.20;99.90
22850;DHT22;11591;44.792;10.358;2023-03-11T05:48:05;14.30;99.90
22850;DHT22;11591;44.792;10.358;2023-03-11T05:50:32;14.40;99.90
22850;DHT22;11591;44.792;10.358;2023-03-11T05:52:59;14.40;99.90
22850;DHT22;11591;44.792;10.358;2023-03-11T05:55:27;14.40;99.90
22850;DHT22;11591;44.792;10.358;2023-03-11T05:57:53;14.40;99.90
22850;DHT22;11591;44.792;10.358;2023-03-11T06:00:20;14.50;99.90
22850;DHT22;11591;44.792;10.358;2023-03-11T06:02:49;14.40;99.90
22850;DHT22;11591;44.792;10.358;2023-03-11T06:05:17;14.40;99.90
22850;DHT22;11591;44.792;10.358;2023-03-11T06:07:45;14.50;99.90
22850;DHT22;11591;44.792;10.358;2023-03-11T06:10:11;14.50;99.90
22850;DHT22;11591;44.792;10.358;2023-03-11T06:12:38;14.60;99.90
22850;DHT22;11591;44.792;10.358;2023-03-11T06:15:20;14.60;99.90
22850;DHT22;11591;44.792;10.358;2023-03-11T06:17:46;14.70;99.90
22850;DHT22;11591;44.792;10.358;2023-03-11T06:20:12;14.70;99.90
22850;DHT22;11591;44.792;10.358;2023-03-11T06:22:38;14.80;99.90
22850;DHT22;11591;44.792;10.358;2023-03-11T06:25:05;14.80;99.90
22850;DHT22;11591;44.792;10.358;2023-03-11T06:27:32;14.80;99.90
22850;DHT22;11591;44.792;10.358;2023-03-11T06:29:58;14.80;99.90
22850;DHT22;11591;44.792;10.358;2023-03-11T06:32:25;14.90;99.90
22850;DHT22;11591;44.792;10.358;2023-03-11T06:34:51;14.90;99.90
22850;DHT22;11591;44.792;10.358;2023-03-11T06:37:18;14.80;99.90
22850;DHT22;11591;44.792;10.358;2023-03-11T06:39:45;14.80;99.90
22850;DHT22;11591;44.792;10.358;2023-03-11T06:42:15;14.80;99.90
22850;DHT22;11591;44.792;10.358;2023-03-11T06:44:42;14.80;99.90
22850;DHT22;11591;44.792;10.358;2023-03-11T06:47:08;14.80;99.90
22850;DHT22;11591;44.792;10.358;2023-03-11T06:49:35;14.80;99.90
22850;DHT22;11591;44.792;10.358;2023-03-11T06:52:06;14.70;99.90
22850;DHT22;11591;44.792;10.358;2023-03-11T06:54:32;14.80;99.90
22850;DHT22;11591;44.792;10.358;2023-03-11T06:56:58;14.80;99.90
22850;DHT22;11591;44.792;10.358;2023-03-11T06:59:24;14.80;99.90
22850;DHT22;11591;44.792;10.358;2023-03-11T07:01:51;14.80;99.90
22850;DHT22;11591;44.792;10.358;2023-03-11T07:04:16;14.80;99.90
22850;DHT22;11591;44.792;10.358;2023-03-11T07:06:43;14.80;99.90
22850;DHT22;11591;44.792;10.358;2023-03-11T07:09:17;14.80;99.90
22850;DHT22;11591;44.792;10.358;2023-03-11T07:11:44;14.80;99.90
22850;DHT22;11591;44.792;10.358;2023-03-11T07:14:15;14.80;99.90
22850;DHT22;11591;44.792;10.358;2023-03-11T07:16:45;14.80;99.90
22850;DHT22;11591;44.792;10.358;2023-03-11T07:19:20;14.80;99.90
22850;DHT22;11591;44.792;10.358;2023-03-11T07:21:46;14.80;99.90
22850;DHT22;11591;44.792;10.358;2023-03-11T07:24:12;14.90;99.90
22850;DHT22;11591;44.792;10.358;2023-03-11T07:26:39;14.90;99.90
22850;DHT22;11591;44.792;10.358;2023-03-11T07:29:05;14.90;99.90
22850;DHT22;11591;44.792;10.358;2023-03-11T07:31:33;14.90;99.90
22850;DHT22;11591;44.792;10.358;2023-03-11T07:34:01;14.90;99.90
22850;DHT22;11591;44.792;10.358;2023-03-11T07:36:28;15.00;99.90
22850;DHT22;11591;44.792;10.358;2023-03-11T07:38:56;15.00;99.90
22850;DHT22;11591;44.792;10.358;2023-03-11T07:41:24;14.90;99.90
22850;DHT22;11591;44.792;10.358;2023-03-11T07:43:53;14.90;99.90
22850;DHT22;11591;44.792;10.358;2023-03-11T07:46:21;15.00;99.90
22850;DHT22;11591;44.792;10.358;2023-03-11T07:48:48;15.00;99.90
22850;DHT22;11591;44.792;10.358;2023-03-11T07:51:20;15.00;99.90
22850;DHT22;11591;44.792;10.358;2023-03-11T07:53:47;15.10;99.90
22850;DHT22;11591;44.792;10.358;2023-03-11T07:56:15;15.10;99.90
22850;DHT22;11591;44.792;10.358;2023-03-11T07:58:41;15.20;99.90
22850;DHT22;11591;44.792;10.358;2023-03-11T08:01:13;15.20;99.90
22850;DHT22;11591;44.792;10.358;2023-03-11T08:03:41;15.30;99.90
22850;DHT22;11591;44.792;10.358;2023-03-11T08:08:38;15.30;99.90
22850;DHT22;11591;44.792;10.358;2023-03-11T08:11:04;15.40;99.90
22850;DHT22;11591;44.792;10.358;2023-03-11T08:13:30;15.40;99.90
22850;DHT22;11591;44.792;10.358;2023-03-11T08:15:56;15.40;99.90
22850;DHT22;11591;44.792;10.358;2023-03-11T08:18:22;15.50;99.90
22850;DHT22;11591;44.792;10.358;2023-03-11T08:20:48;15.50;99.90
22850;DHT22;11591;44.792;10.358;2023-03-11T08:23:14;15.50;99.90
22850;DHT22;11591;44.792;10.358;2023-03-11T08:25:40;15.50;99.90
22850;DHT22;11591;44.792;10.358;2023-03-11T08:28:07;15.60;99.90
22850;DHT22;11591;44.792;10.358;2023-03-11T08:30:34;15.60;99.90
22850;DHT22;11591;44.792;10.358;2023-03-11T08:33:00;15.70;99.90
22850;DHT22;11591;44.792;10.358;2023-03-11T08:35:26;15.70;99.90
22850;DHT22;11591;44.792;10.358;2023-03-11T08:37:52;15.70;99.90
22850;DHT22;11591;44.792;10.358;2023-03-11T08:40:18;15.70;99.90
22850;DHT22;11591;44.792;10.358;2023-03-11T08:42:44;15.80;99.90
22850;DHT22;11591;44.792;10.358;2023-03-11T08:45:10;15.90;99.90
22850;DHT22;11591;44.792;10.358;2023-03-11T08:47:36;15.90;99.90
22850;DHT22;11591;44.792;10.358;2023-03-11T08:50:04;15.90;99.90
22850;DHT22;11591;44.792;10.358;2023-03-11T08:52:30;16.00;99.90
22850;DHT22;11591;44.792;10.358;2023-03-11T08:54:56;16.10;99.90
22850;DHT22;11591;44.792;10.358;2023-03-11T08:57:22;16.20;99.90
22850;DHT22;11591;44.792;10.358;2023-03-11T08:59:48;16.30;99.90
22850;DHT22;11591;44.792;10.358;2023-03-11T09:02:13;16.30;99.90
22850;DHT22;11591;44.792;10.358;2023-03-11T09:04:39;16.40;99.90
22850;DHT22;11591;44.792;10.358;2023-03-11T09:07:05;16.50;99.90
22850;DHT22;11591;44.792;10.358;2023-03-11T09:09:31;16.60;99.90
22850;DHT22;11591;44.792;10.358;2023-03-11T09:11:57;16.60;99.90
22850;DHT22;11591;44.792;10.358;2023-03-11T09:14:22;16.70;99.90
22850;DHT22;11591;44.792;10.358;2023-03-11T09:16:48;16.80;99.90
22850;DHT22;11591;44.792;10.358;2023-03-11T09:19:14;16.90;99.90
22850;DHT22;11591;44.792;10.358;2023-03-11T09:21:40;17.00;99.90
22850;DHT22;11591;44.792;10.358;2023-03-11T09:24:06;17.00;99.90
22850;DHT22;11591;44.792;10.358;2023-03-11T09:26:32;17.10;99.90
22850;DHT22;11591;44.792;10.358;2023-03-11T09:28:58;17.20;99.90
22850;DHT22;11591;44.792;10.358;2023-03-11T09:31:23;17.30;99.90
22850;DHT22;11591;44.792;10.358;2023-03-11T09:33:49;17.40;99.90
22850;DHT22;11591;44.792;10.358;2023-03-11T09:36:19;17.50;99.90
22850;DHT22;11591;44.792;10.358;2023-03-11T09:38:45;17.60;99.90
22850;DHT22;11591;44.792;10.358;2023-03-11T09:41:26;17.70;99.90
22850;DHT22;11591;44.792;10.358;2023-03-11T09:55:31;18.10;99.90
22850;DHT22;11591;44.792;10.358;2023-03-11T09:58:00;18.20;99.90
22850;DHT22;11591;44.792;10.358;2023-03-11T10:00:27;18.30;99.90
22850;DHT22;11591;44.792;10.358;2023-03-11T10:02:53;18.40;99.90
22850;DHT22;11591;44.792;10.358;2023-03-11T10:05:22;18.40;99.90
22850;DHT22;11591;44.792;10.358;2023-03-11T10:08:23;18.50;99.90
22850;DHT22;11591;44.792;10.358;2023-03-11T10:11:14;18.60;99.90
22850;DHT22;11591;44.792;10.358;2023-03-11T10:19:29;18.80;99.90
22850;DHT22;11591;44.792;10.358;2023-03-11T10:24:56;19.00;99.90
22850;DHT22;11591;44.792;10.358;2023-03-11T10:27:48;19.00;99.90
22850;DHT22;11591;44.792;10.358;2023-03-11T10:30:32;19.10;99.90
22850;DHT22;11591;44.792;10.358;2023-03-11T10:33:36;19.10;99.90
22850;DHT22;11591;44.792;10.358;2023-03-11T10:36:09;19.20;99.60
22850;DHT22;11591;44.792;10.358;2023-03-11T10:38:40;19.20;99.90
22850;DHT22;11591;44.792;10.358;2023-03-11T10:41:31;19.40;99.60
22850;DHT22;11591;44.792;10.358;2023-03-11T10:46:49;19.40;99.40
22850;DHT22;11591;44.792;10.358;2023-03-11T10:49:16;19.50;99.40
22850;DHT22;11591;44.792;10.358;2023-03-11T10:51:47;19.60;99.20
22850;DHT22;11591;44.792;10.358;2023-03-11T10:54:35;19.60;99.20
22850;DHT22;11591;44.792;10.358;2023-03-11T10:57:42;19.70;98.50
22850;DHT22;11591;44.792;10.358;2023-03-11T11:00:14;19.70;98.60
22850;DHT22;11591;44.792;10.358;2023-03-11T11:02:54;19.80;98.60
22850;DHT22;11591;44.792;10.358;2023-03-11T11:05:31;19.90;97.70
22850;DHT22;11591;44.792;10.358;2023-03-11T11:08:12;19.90;97.50
22850;DHT22;11591;44.792;10.358;2023-03-11T11:10:49;19.90;97.70
22850;DHT22;11591;44.792;10.358;2023-03-11T11:13:21;20.00;98.00
22850;DHT22;11591;44.792;10.358;2023-03-11T11:16:17;20.00;97.50
22850;DHT22;11591;44.792;10.358;2023-03-11T11:18:51;20.10;97.20
22850;DHT22;11591;44.792;10.358;2023-03-11T11:21:40;20.10;96.80
22850;DHT22;11591;44.792;10.358;2023-03-11T11:24:23;20.20;95.70
22850;DHT22;11591;44.792;10.358;2023-03-11T11:27:15;20.20;95.80
22850;DHT22;11591;44.792;10.358;2023-03-11T11:29:42;20.20;95.70
22850;DHT22;11591;44.792;10.358;2023-03-11T11:32:17;20.20;95.90
22850;DHT22;11591;44.792;10.358;2023-03-11T11:35:01;20.40;95.90
22850;DHT22;11591;44.792;10.358;2023-03-11T11:37:33;20.40;95.60
22850;DHT22;11591;44.792;10.358;2023-03-11T11:40:16;20.40;95.80
22850;DHT22;11591;44.792;10.358;2023-03-11T11:45:21;20.40;95.90
22850;DHT22;11591;44.792;10.358;2023-03-11T11:47:51;20.40;96.00
22850;DHT22;11591;44.792;10.358;2023-03-11T11:50:33;20.40;96.10
22850;DHT22;11591;44.792;10.358;2023-03-11T11:55:47;20.50;96.00
22850;DHT22;11591;44.792;10.358;2023-03-11T11:58:13;20.50;95.60
22850;DHT22;11591;44.792;10.358;2023-03-11T12:00:54;20.50;95.90
22850;DHT22;11591;44.792;10.358;2023-03-11T12:03:40;20.50;96.20
22850;DHT22;11591;44.792;10.358;2023-03-11T12:06:43;20.60;96.20
22850;DHT22;11591;44.792;10.358;2023-03-11T12:11:54;20.70;95.60
22850;DHT22;11591;44.792;10.358;2023-03-11T12:14:25;20.70;95.60
22850;DHT22;11591;44.792;10.358;2023-03-11T12:16:58;20.60;96.00
22850;DHT22;11591;44.792;10.358;2023-03-11T12:25:35;20.80;95.80
22850;DHT22;11591;44.792;10.358;2023-03-11T12:30:52;20.80;95.30
22850;DHT22;11591;44.792;10.358;2023-03-11T12:33:37;20.80;95.40
22850;DHT22;11591;44.792;10.358;2023-03-11T12:36:05;20.90;95.60
22850;DHT22;11591;44.792;10.358;2023-03-11T12:38:33;20.80;95.30
22850;DHT22;11591;44.792;10.358;2023-03-11T12:41:05;20.80;95.50
22850;DHT22;11591;44.792;10.358;2023-03-11T12:46:05;20.80;95.10
22850;DHT22;11591;44.792;10.358;2023-03-11T12:48:42;20.80;95.70
22850;DHT22;11591;44.792;10.358;2023-03-11T12:54:38;20.90;95.50
22850;DHT22;11591;44.792;10.358;2023-03-11T13:00:00;21.00;95.20
22850;DHT22;11591;44.792;10.358;2023-03-11T13:08:23;21.00;95.30
22850;DHT22;11591;44.792;10.358;2023-03-11T13:10:54;21.00;95.60
22850;DHT22;11591;44.792;10.358;2023-03-11T13:15:57;21.00;95.60
22850;DHT22;11591;44.792;10.358;2023-03-11T13:18:45;21.00;95.50
22850;DHT22;11591;44.792;10.358;2023-03-11T13:32:14;22.30;95.60
22850;DHT22;11591;44.792;10.358;2023-03-11T13:42:53;25.10;93.80
22850;DHT22;11591;44.792;10.358;2023-03-11T13:45:27;25.40;93.30
22850;DHT22;11591;44.792;10.358;2023-03-11T13:48:22;25.90;93.20
22850;DHT22;11591;44.792;10.358;2023-03-11T13:50:57;26.20;92.70
22850;DHT22;11591;44.792;10.358;2023-03-11T13:53:32;26.40;92.10
22850;DHT22;11591;44.792;10.358;2023-03-11T13:55:59;26.40;91.90
22850;DHT22;11591;44.792;10.358;2023-03-11T13:58:26;26.60;91.50
22850;DHT22;11591;44.792;10.358;2023-03-11T14:00:55;26.10;91.30
22850;DHT22;11591;44.792;10.358;2023-03-11T14:03:22;26.20;91.10
22850;DHT22;11591;44.792;10.358;2023-03-11T14:06:17;26.40;91.40
22850;DHT22;11591;44.792;10.358;2023-03-11T14:08:54;26.40;90.50
22850;DHT22;11591;44.792;10.358;2023-03-11T14:11:27;26.30;90.10
22850;DHT22;11591;44.792;10.358;2023-03-11T14:13:56;26.60;89.50
22850;DHT22;11591;44.792;10.358;2023-03-11T14:16:23;26.70;88.90
22850;DHT22;11591;44.792;10.358;2023-03-11T14:19:03;26.70;88.20
22850;DHT22;11591;44.792;10.358;2023-03-11T14:21:29;26.80;87.70
22850;DHT22;11591;44.792;10.358;2023-03-11T14:23:58;26.70;88.00
22850;DHT22;11591;44.792;10.358;2023-03-11T14:26:29;26.80;88.10
22850;DHT22;11591;44.792;10.358;2023-03-11T14:28:59;26.80;87.80
22850;DHT22;11591;44.792;10.358;2023-03-11T14:36:42;27.10;87.60
22850;DHT22;11591;44.792;10.358;2023-03-11T14:39:24;27.20;87.00
22850;DHT22;11591;44.792;10.358;2023-03-11T14:41:54;27.30;87.20
22850;DHT22;11591;44.792;10.358;2023-03-11T14:44:22;27.10;87.50
22850;DHT22;11591;44.792;10.358;2023-03-11T14:46:51;26.90;87.10
22850;DHT22;11591;44.792;10.358;2023-03-11T14:49:21;26.90;87.60
22850;DHT22;11591;44.792;10.358;2023-03-11T14:51:59;26.60;87.50
22850;DHT22;11591;44.792;10.358;2023-03-11T14:54:29;26.80;87.80
22850;DHT22;11591;44.792;10.358;2023-03-11T14:57:02;27.20;87.60
22850;DHT22;11591;44.792;10.358;2023-03-11T14:59:30;27.30;86.80
22850;DHT22;11591;44.792;10.358;2023-03-11T15:02:47;27.20;86.60
22850;DHT22;11591;44.792;10.358;2023-03-11T15:04:47;27.10;87.10
22850;DHT22;11591;44.792;10.358;2023-03-11T15:07:13;27.20;86.60
22850;DHT22;11591;44.792;10.358;2023-03-11T15:09:41;27.10;86.60
22850;DHT22;11591;44.792;10.358;2023-03-11T15:12:39;27.10;85.90
22850;DHT22;11591;44.792;10.358;2023-03-11T15:15:22;27.20;85.90
22850;DHT22;11591;44.792;10.358;2023-03-11T15:17:53;27.10;85.40
22850;DHT22;11591;44.792;10.358;2023-03-11T15:20:35;27.00;85.90
22850;DHT22;11591;44.792;10.358;2023-03-11T15:23:04;27.00;86.10
22850;DHT22;11591;44.792;10.358;2023-03-11T15:25:32;27.00;85.10
22850;DHT22;11591;44.792;10.358;2023-03-11T15:31:12;26.50;85.30
22850;DHT22;11591;44.792;10.358;2023-03-11T15:33:37;26.00;86.10
22850;DHT22;11591;44.792;10.358;2023-03-11T15:36:04;25.90;86.80
22850;DHT22;11591;44.792;10.358;2023-03-11T15:38:30;25.70;87.40
22850;DHT22;11591;44.792;10.358;2023-03-11T15:40:58;25.70;86.80
22850;DHT22;11591;44.792;10.358;2023-03-11T15:43:30;25.70;87.20
22850;DHT22;11591;44.792;10.358;2023-03-11T15:45:59;25.50;87.10
22850;DHT22;11591;44.792;10.358;2023-03-11T15:48:26;25.40;87.50
22850;DHT22;11591;44.792;10.358;2023-03-11T15:50:58;25.40;87.70
22850;DHT22;11591;44.792;10.358;2023-03-11T15:53:25;25.50;87.70
22850;DHT22;11591;44.792;10.358;2023-03-11T15:55:53;25.40;87.80
22850;DHT22;11591;44.792;10.358;2023-03-11T15:58:20;25.20;88.20
22850;DHT22;11591;44.792;10.358;2023-03-11T16:00:53;25.20;88.20
22850;DHT22;11591;44.792;10.358;2023-03-11T16:03:21;25.00;88.30
22850;DHT22;11591;44.792;10.358;2023-03-11T16:05:47;24.80;88.70
22850;DHT22;11591;44.792;10.358;2023-03-11T16:08:13;24.80;89.10
22850;DHT22;11591;44.792;10.358;2023-03-11T16:10:39;24.70;89.10
22850;DHT22;11591;44.792;10.358;2023-03-11T16:13:05;24.50;89.30
22850;DHT22;11591;44.792;10.358;2023-03-11T16:15:34;24.20;89.80
22850;DHT22;11591;44.792;10.358;2023-03-11T16:18:02;24.20;90.10
22850;DHT22;11591;44.792;10.358;2023-03-11T16:20:33;24.00;90.30
22850;DHT22;11591;44.792;10.358;2023-03-11T16:23:01;23.90;90.50
22850;DHT22;11591;44.792;10.358;2023-03-11T16:25:33;23.70;90.90
22850;DHT22;11591;44.792;10.358;2023-03-11T16:28:01;23.60;91.10
22850;DHT22;11591;44.792;10.358;2023-03-11T16:30:29;23.40;91.30
22850;DHT22;11591;44.792;10.358;2023-03-11T16:32:55;23.30;91.50
22850;DHT22;11591;44.792;10.358;2023-03-11T16:35:21;23.20;91.70
22850;DHT22;11591;44.792;10.358;2023-03-11T16:37:47;23.10;91.80
22850;DHT22;11591;44.792;10.358;2023-03-11T16:40:16;22.90;92.10
22850;DHT22;11591;44.792;10.358;2023-03-11T16:42:42;22.80;92.20
22850;DHT22;11591;44.792;10.358;2023-03-11T16:45:12;22.80;92.30
22850;DHT22;11591;44.792;10.358;2023-03-11T16:47:38;22.70;92.30
22850;DHT22;11591;44.792;10.358;2023-03-11T16:50:05;22.70;92.50
22850;DHT22;11591;44.792;10.358;2023-03-11T16:52:31;22.60;92.70
22850;DHT22;11591;44.792;10.358;2023-03-11T16:54:56;22.50;93.00
22850;DHT22;11591;44.792;10.358;2023-03-11T16:57:22;22.50;93.20
22850;DHT22;11591;44.792;10.358;2023-03-11T16:59:48;22.50;93.20
22850;DHT22;11591;44.792;10.358;2023-03-11T17:02:14;22.30;93.30
22850;DHT22;11591;44.792;10.358;2023-03-11T17:04:40;22.30;93.50